Time;durP1;ratioP1;P1;durP2;ratioP2;P2;SDS_P1;SDS_P2;PMS_P1;PMS_P2;Temp;Humidity;BMP_temperature;BMP_pressure;BME280_temperature;BME280_humidity;BME280_pressure;Samples;Min_cycle;Max_cycle;Signal;HPM_P1;HPM_P2
2021/12/29 00:01:48;;;;;;;13.13;10.40;;;;;;;7.67;99.15;100039.03;5014555;28;20461;-69
2021/12/29 00:04:15;;;;;;;14.80;11.20;;;;;;;7.66;99.06;100047.72;5015010;28;20363;-69
2021/12/29 00:06:41;;;;;;;14.82;11.05;;;;;;;7.67;99.03;100059.66;4996673;28;20108;-69
2021/12/29 00:09:06;;;;;;;18.02;12.57;;;;;;;7.65;98.73;100051.25;4995167;28;20512;-68
2021/12/29 00:11:32;;;;;;;15.90;11.88;;;;;;;7.66;99.39;100066.59;5004969;28;20548;-68
2021/12/29 00:13:58;;;;;;;17.15;12.50;;;;;;;7.65;99.03;100077.06;5002657;28;20072;-68
2021/12/29 00:16:24;;;;;;;16.75;12.88;;;;;;;7.68;99.07;100092.28;5006602;28;20057;-67
2021/12/29 00:18:49;;;;;;;17.83;13.07;;;;;;;7.65;98.63;100092.53;5005774;28;20062;-69
2021/12/29 00:21:15;;;;;;;15.73;12.43;;;;;;;7.68;99.00;100102.59;5000607;28;20034;-68
2021/12/29 00:23:40;;;;;;;18.58;12.75;;;;;;;7.68;98.95;100110.34;5014059;28;20080;-68
2021/12/29 00:26:06;;;;;;;16.85;11.98;;;;;;;7.68;98.54;100121.50;5014215;28;20029;-69
2021/12/29 00:28:31;;;;;;;17.60;11.60;;;;;;;7.68;98.51;100112.91;5014303;28;20445;-68
2021/12/29 00:30:56;;;;;;;15.80;11.50;;;;;;;7.66;98.47;100122.56;5013836;28;20026;-67
2021/12/29 00:33:22;;;;;;;17.98;11.02;;;;;;;7.67;98.21;100119.03;4995404;28;20067;-68
2021/12/29 00:35:47;;;;;;;15.38;10.60;;;;;;;7.66;98.10;100125.16;4996302;28;20026;-68
2021/12/29 00:38:13;;;;;;;15.52;10.00;;;;;;;7.67;98.11;100132.75;5014271;28;20109;-69
2021/12/29 00:40:39;;;;;;;13.77;9.60;;;;;;;7.68;98.67;100143.91;5013826;28;20022;-69
2021/12/29 00:43:07;;;;;;;12.98;9.50;;;;;;;7.67;98.11;100142.25;5014373;28;20033;-70
2021/12/29 00:45:35;;;;;;;11.70;8.95;;;;;;;7.68;98.68;100159.38;4996435;28;20140;-68
2021/12/29 00:48:01;;;;;;;11.45;9.18;;;;;;;7.67;98.06;100162.91;5014239;28;20030;-68
2021/12/29 00:50:26;;;;;;;12.25;9.15;;;;;;;7.67;98.38;100168.06;5013440;28;20022;-68
2021/12/29 00:52:52;;;;;;;10.90;9.18;;;;;;;7.67;98.44;100163.72;5013850;28;20033;-69
2021/12/29 00:55:18;;;;;;;12.23;9.73;;;;;;;7.68;98.80;100164.53;5013812;28;20038;-69
2021/12/29 00:57:44;;;;;;;12.68;10.55;;;;;;;7.69;98.85;100171.38;5014010;28;20374;-69
2021/12/29 01:00:14;;;;;;;13.50;10.20;;;;;;;7.68;98.36;100174.88;5014279;28;20100;-68
2021/12/29 01:02:40;;;;;;;11.85;10.50;;;;;;;7.68;98.38;100177.44;5013557;28;20026;-68
2021/12/29 01:05:07;;;;;;;12.35;10.27;;;;;;;7.68;98.26;100198.09;4995919;28;20041;-69
2021/12/29 01:07:32;;;;;;;12.60;10.50;;;;;;;7.64;98.84;100184.63;5013404;28;20053;-68
2021/12/29 01:09:59;;;;;;;13.73;10.45;;;;;;;7.68;98.49;100200.69;5013561;28;20164;-68
2021/12/29 01:12:25;;;;;;;13.50;10.25;;;;;;;7.69;98.20;100202.34;5013020;28;20049;-68
2021/12/29 01:14:55;;;;;;;13.05;10.80;;;;;;;7.70;98.65;100204.78;5013645;28;20025;-68
2021/12/29 01:17:22;;;;;;;13.93;10.93;;;;;;;7.69;98.32;100213.47;5013162;28;20104;-68
2021/12/29 01:19:49;;;;;;;14.55;10.73;;;;;;;7.71;98.03;100221.09;5012898;28;20030;-68
2021/12/29 01:22:16;;;;;;;12.93;11.05;;;;;;;7.69;98.39;100223.81;5013110;28;20387;-68
2021/12/29 01:24:43;;;;;;;12.43;10.05;;;;;;;7.65;98.28;100221.59;5012969;28;20108;-68
2021/12/29 01:27:09;;;;;;;11.85;10.32;;;;;;;7.69;98.54;100239.28;5013295;28;20038;-68
2021/12/29 01:29:35;;;;;;;11.82;10.57;;;;;;;7.65;97.96;100243.03;5011508;28;20026;-69
2021/12/29 01:32:01;;;;;;;13.02;10.35;;;;;;;7.67;98.26;100256.63;5012825;28;20037;-69
2021/12/29 01:34:27;;;;;;;13.05;11.05;;;;;;;7.68;98.33;100257.47;4995299;28;20485;-68
2021/12/29 01:36:53;;;;;;;13.18;10.82;;;;;;;7.70;97.77;100268.50;4995155;28;20037;-69
2021/12/29 01:39:20;;;;;;;14.90;10.80;;;;;;;7.68;97.74;100278.09;4995503;28;20033;-69
2021/12/29 01:41:47;;;;;;;12.15;9.77;;;;;;;7.65;98.01;100283.53;5012732;28;20041;-69
2021/12/29 01:44:16;;;;;;;14.57;10.75;;;;;;;7.65;97.98;100283.53;4995106;28;20132;-69
2021/12/29 01:46:44;;;;;;;14.77;10.40;;;;;;;7.65;97.96;100283.53;5012360;28;20049;-68
2021/12/29 01:49:10;;;;;;;13.60;9.88;;;;;;;7.64;97.98;100287.06;5012710;28;20113;-69
2021/12/29 01:51:36;;;;;;;11.90;9.98;;;;;;;7.61;97.46;100282.13;5012718;28;20113;-68
2021/12/29 01:54:17;;;;;;;13.10;9.68;;;;;;;7.66;97.41;100298.06;5012589;28;20341;-68
2021/12/29 01:56:45;;;;;;;12.68;9.43;;;;;;;7.66;97.85;100298.06;5012689;28;20148;-69
2021/12/29 01:59:11;;;;;;;11.73;9.25;;;;;;;7.64;97.58;100281.88;5012569;28;20033;-69
2021/12/29 02:01:37;;;;;;;13.38;9.65;;;;;;;7.66;98.00;100300.66;5012451;28;20061;-68
2021/12/29 02:04:02;;;;;;;12.35;9.68;;;;;;;7.66;97.86;100295.47;5012224;28;20050;-68
2021/12/29 02:06:27;;;;;;;11.77;10.02;;;;;;;7.67;97.39;100302.28;5012147;28;20437;-68
2021/12/29 02:08:55;;;;;;;12.05;9.48;;;;;;;7.66;97.52;100300.66;5012383;28;20429;-69
2021/12/29 02:11:29;;;;;;;12.98;10.05;;;;;;;7.67;97.59;100307.44;5012573;28;20442;-68
2021/12/29 02:13:57;;;;;;;13.60;10.00;;;;;;;7.64;97.48;100312.84;5012416;28;20030;-68
2021/12/29 02:16:23;;;;;;;12.48;9.95;;;;;;;7.66;97.89;100326.47;4994528;28;20026;-68
2021/12/29 02:18:53;;;;;;;12.32;9.98;;;;;;;7.65;97.76;100324.81;5012327;28;20377;-69
2021/12/29 02:21:21;;;;;;;13.00;10.07;;;;;;;7.64;97.71;100333.50;5006004;28;20022;-68
2021/12/29 02:24:05;;;;;;;13.20;11.43;;;;;;;7.64;98.15;100333.50;5011870;28;20036;-68
2021/12/29 02:26:32;;;;;;;14.88;12.30;;;;;;;7.62;97.94;100330.19;4994421;28;20025;-68
2021/12/29 02:29:01;;;;;;;16.13;13.02;;;;;;;7.64;97.91;100333.50;5011956;28;20152;-68
2021/12/29 02:31:27;;;;;;;17.02;12.90;;;;;;;7.65;97.65;100345.47;4993868;28;20061;-69
2021/12/29 02:33:53;;;;;;;14.90;13.27;;;;;;;7.60;98.33;100338.06;4994886;28;20047;-69
2021/12/29 02:36:20;;;;;;;15.88;13.55;;;;;;;7.57;98.05;100333.16;5012121;28;20454;-69
2021/12/29 02:38:54;;;;;;;15.50;13.75;;;;;;;7.61;98.12;100344.06;5011278;28;20049;-69
2021/12/29 02:41:22;;;;;;;16.80;13.88;;;;;;;7.63;97.83;100352.53;5010632;28;20497;-68
2021/12/29 02:43:49;;;;;;;15.20;13.48;;;;;;;7.62;98.29;100345.69;5005052;28;20032;-68
2021/12/29 02:46:16;;;;;;;17.90;13.68;;;;;;;7.61;98.02;100354.38;5011818;28;20489;-68
2021/12/29 02:48:53;;;;;;;14.52;12.88;;;;;;;7.59;97.97;100353.69;5011177;28;20033;-68
2021/12/29 02:51:18;;;;;;;15.73;11.95;;;;;;;7.59;98.65;100345.94;5011425;28;20282;-69
2021/12/29 02:53:44;;;;;;;14.98;12.40;;;;;;;7.59;98.35;100351.91;5011272;28;20029;-69
2021/12/29 02:56:09;;;;;;;13.63;11.82;;;;;;;7.60;98.48;100352.75;4993921;28;20033;-69
2021/12/29 02:58:35;;;;;;;15.50;12.70;;;;;;;7.59;98.30;100351.09;5011347;28;20030;-69
2021/12/29 03:01:04;;;;;;;16.52;12.73;;;;;;;7.58;98.34;100349.47;5011267;28;20030;-68
2021/12/29 03:03:30;;;;;;;;;;;;;;;7.67;98.57;100359.88;5011867;28;20080;-69
2021/12/29 03:05:57;;;;;;;15.93;14.15;;;;;;;7.58;98.68;100370.13;5011514;28;20285;-69
2021/12/29 03:08:23;;;;;;;17.20;14.32;;;;;;;7.59;98.38;100376.91;5011260;28;20378;-69
2021/12/29 03:10:52;;;;;;;15.57;13.50;;;;;;;7.59;98.74;100392.41;5011023;28;20041;-69
2021/12/29 03:13:22;;;;;;;17.60;14.63;;;;;;;7.56;98.41;100377.13;5011771;28;20540;-68
2021/12/29 03:15:48;;;;;;;17.50;13.55;;;;;;;7.55;98.43;100372.91;5011880;28;20235;-68
2021/12/29 03:18:13;;;;;;;18.38;15.45;;;;;;;7.57;98.80;100391.66;5010951;28;20525;-68
2021/12/29 03:20:38;;;;;;;19.27;15.35;;;;;;;7.56;99.08;100390.03;5011138;28;20030;-68
2021/12/29 03:23:04;;;;;;;18.88;15.85;;;;;;;7.54;98.73;100395.31;4993452;28;20053;-69
2021/12/29 03:25:29;;;;;;;20.80;16.63;;;;;;;7.53;99.21;100408.34;5010918;28;20072;-68
2021/12/29 03:28:00;;;;;;;21.83;16.88;;;;;;;7.50;98.80;100404.22;5011132;28;20075;-68
2021/12/29 03:30:31;;;;;;;21.35;17.77;;;;;;;7.50;98.87;100413.72;5004071;28;20034;-69
2021/12/29 03:33:03;;;;;;;20.33;18.10;;;;;;;7.49;99.51;100417.25;5009478;28;20486;-68
2021/12/29 03:35:33;;;;;;;21.63;18.23;;;;;;;7.50;98.89;100427.44;5008497;28;20386;-68
2021/12/29 03:38:00;;;;;;;21.42;18.10;;;;;;;7.50;99.10;100429.22;5010687;28;20651;-68
2021/12/29 03:40:26;;;;;;;22.15;18.27;;;;;;;7.48;99.25;100431.09;5020291;28;20033;-68
2021/12/29 03:42:52;;;;;;;21.27;17.88;;;;;;;7.50;99.47;100434.38;5011881;28;20468;-68
2021/12/29 03:45:17;;;;;;;23.02;18.77;;;;;;;7.49;99.00;100435.31;5012210;28;20029;-70
2021/12/29 03:47:43;;;;;;;23.75;19.63;;;;;;;7.49;99.49;100427.56;5021692;28;20038;-68
2021/12/29 03:50:08;;;;;;;24.45;18.15;;;;;;;7.47;98.99;100442.34;5010680;28;20480;-68
2021/12/29 03:52:34;;;;;;;23.40;19.00;;;;;;;7.50;99.04;100439.53;5010621;28;20084;-68
2021/12/29 03:54:59;;;;;;;23.30;19.13;;;;;;;7.50;99.19;100449.84;5010293;28;20045;-68
2021/12/29 03:57:24;;;;;;;21.75;19.30;;;;;;;7.48;99.35;100452.56;5010630;28;20034;-68
2021/12/29 03:59:50;;;;;;;24.20;19.65;;;;;;;7.49;99.64;100449.03;4998434;28;20036;-68
2021/12/29 04:02:15;;;;;;;23.65;20.58;;;;;;;7.48;99.28;100451.72;5010510;28;20033;-68
2021/12/29 04:04:40;;;;;;;23.25;19.63;;;;;;;7.48;99.76;100457.72;4992682;28;20044;-68
2021/12/29 04:07:06;;;;;;;23.05;19.65;;;;;;;7.47;99.45;100456.06;5010675;28;20049;-68
2021/12/29 04:09:31;;;;;;;23.52;20.27;;;;;;;7.49;99.00;100463.69;5009297;28;20030;-68
2021/12/29 04:11:56;;;;;;;24.48;19.60;;;;;;;7.44;98.78;100457.09;5022810;28;20029;-68
2021/12/29 04:14:26;;;;;;;24.17;19.88;;;;;;;7.47;99.21;100457.84;5010323;28;20124;-68
2021/12/29 04:16:52;;;;;;;24.02;18.98;;;;;;;7.45;99.58;100463.94;5008197;28;20022;-69
2021/12/29 04:19:29;;;;;;;24.45;19.55;;;;;;;7.45;99.77;100469.09;5010278;28;20025;-67
2021/12/29 04:21:56;;;;;;;26.17;19.35;;;;;;;7.47;99.41;100478.47;5015897;28;20044;-68
2021/12/29 04:24:22;;;;;;;22.80;18.20;;;;;;;7.45;99.35;100468.25;5010330;28;20037;-68
2021/12/29 04:26:47;;;;;;;21.52;17.98;;;;;;;7.44;98.92;100477.75;5010218;28;20348;-67
2021/12/29 04:29:13;;;;;;;22.98;18.95;;;;;;;7.45;98.89;100463.94;5010226;28;20030;-68
2021/12/29 04:31:39;;;;;;;20.95;18.02;;;;;;;7.41;99.01;100472.84;5010265;28;20494;-67
2021/12/29 04:34:06;;;;;;;21.30;18.48;;;;;;;7.42;98.80;100473.66;5008129;28;20041;-67
2021/12/29 04:36:32;;;;;;;23.27;17.77;;;;;;;7.42;99.64;100484.78;5010413;28;20034;-68
2021/12/29 04:38:59;;;;;;;22.00;17.80;;;;;;;7.43;99.35;100485.59;5013044;28;20180;-67
2021/12/29 04:41:25;;;;;;;24.85;18.63;;;;;;;7.41;98.95;100498.63;5019376;28;20041;-69
2021/12/29 04:43:50;;;;;;;20.98;18.00;;;;;;;7.42;99.49;100495.13;5009746;28;20025;-67
2021/12/29 04:46:18;;;;;;;23.42;18.40;;;;;;;7.42;99.43;100500.28;5012835;28;20026;-67
2021/12/29 04:49:00;;;;;;;24.40;18.75;;;;;;;7.44;98.96;100507.91;5016428;28;20021;-68
2021/12/29 04:51:34;;;;;;;26.40;19.27;;;;;;;7.43;99.28;100507.06;5013827;28;20017;-68
2021/12/29 04:54:00;;;;;;;22.80;18.60;;;;;;;7.42;98.71;100520.91;5013801;28;20037;-67
2021/12/29 04:56:26;;;;;;;22.80;18.67;;;;;;;7.40;99.18;100516.81;5013799;28;20037;-68
2021/12/29 04:58:51;;;;;;;21.63;19.33;;;;;;;7.43;98.77;100521.72;5012207;28;20026;-67
2021/12/29 05:01:16;;;;;;;23.27;19.13;;;;;;;7.41;99.06;100519.28;5013665;28;20040;-68
2021/12/29 05:03:44;;;;;;;22.88;18.65;;;;;;;7.40;99.03;100522.78;5013567;28;20075;-67
2021/12/29 05:08:36;;;;;;;23.33;19.85;;;;;;;7.42;99.06;100536.41;5017070;28;20030;-68
2021/12/29 05:11:05;;;;;;;22.83;19.77;;;;;;;7.37;98.96;100533.31;5013389;28;20378;-68
2021/12/29 05:13:33;;;;;;;26.15;19.70;;;;;;;7.40;98.76;100521.97;5008774;28;20061;-68
2021/12/29 05:15:59;;;;;;;22.60;19.33;;;;;;;7.38;98.91;100523.81;5013659;28;20136;-68
2021/12/29 05:18:26;;;;;;;22.00;18.83;;;;;;;7.41;98.75;100528.78;5013323;28;20151;-67
2021/12/29 05:20:52;;;;;;;23.98;18.70;;;;;;;7.38;99.12;100529.81;5013268;28;20030;-68
2021/12/29 05:23:18;;;;;;;24.42;18.50;;;;;;;7.40;98.39;100533.13;5013146;28;20041;-68
2021/12/29 05:25:43;;;;;;;21.02;18.65;;;;;;;7.41;98.54;100534.75;5025434;28;20087;-68
2021/12/29 05:28:09;;;;;;;23.00;18.27;;;;;;;7.37;98.67;100528.16;4995366;28;20037;-68
2021/12/29 05:30:35;;;;;;;23.98;18.42;;;;;;;7.37;98.61;100533.31;5012797;28;20080;-67
2021/12/29 05:33:01;;;;;;;22.38;18.42;;;;;;;7.38;98.27;100540.13;5007160;28;20054;-68
2021/12/29 05:35:27;;;;;;;22.40;18.23;;;;;;;7.38;98.76;100550.44;5008169;28;20041;-68
2021/12/29 05:37:53;;;;;;;23.92;18.17;;;;;;;7.40;98.10;100542.63;5013248;28;20033;-68
2021/12/29 05:40:18;;;;;;;22.15;18.67;;;;;;;7.38;98.62;100549.63;5010208;28;20037;-68
2021/12/29 05:42:43;;;;;;;24.25;18.65;;;;;;;7.36;98.17;100552.31;5013155;28;20037;-68
2021/12/29 05:45:12;;;;;;;23.65;18.23;;;;;;;7.37;98.00;100550.56;5013099;28;20439;-67
2021/12/29 05:47:37;;;;;;;22.48;18.02;;;;;;;7.37;98.56;100545.41;4988363;28;20390;-68
2021/12/29 05:50:09;;;;;;;23.00;18.77;;;;;;;7.35;98.67;100545.53;5012797;28;20021;-68
2021/12/29 05:52:34;;;;;;;24.58;19.02;;;;;;;7.33;98.32;100542.22;5012431;28;20038;-71
2021/12/29 05:55:00;;;;;;;21.25;18.15;;;;;;;7.37;98.64;100551.38;5011914;28;20470;-73
2021/12/29 05:57:25;;;;;;;21.25;18.77;;;;;;;7.34;98.01;100549.03;5010952;28;20378;-69
2021/12/29 05:59:51;;;;;;;21.42;19.02;;;;;;;7.35;98.39;100542.13;5013766;28;20469;-67
2021/12/29 06:02:16;;;;;;;21.30;17.48;;;;;;;7.35;97.96;100544.72;4994622;28;20045;-68
2021/12/29 06:04:41;;;;;;;22.92;18.33;;;;;;;7.35;98.47;100548.09;4994576;28;20042;-68
2021/12/29 06:07:07;;;;;;;22.10;18.33;;;;;;;7.37;98.42;100553.97;5012647;28;20068;-69
2021/12/29 06:09:32;;;;;;;21.23;17.10;;;;;;;7.36;98.15;100559.25;5012254;28;20052;-68
2021/12/29 06:11:57;;;;;;;23.20;18.10;;;;;;;7.34;98.49;100559.38;5011314;28;20065;-67
2021/12/29 06:14:23;;;;;;;22.38;17.52;;;;;;;7.34;98.49;100567.09;5012813;28;20044;-68
2021/12/29 06:16:48;;;;;;;23.77;16.98;;;;;;;7.36;97.92;100572.97;4994608;28;20037;-68
2021/12/29 06:19:14;;;;;;;21.83;17.23;;;;;;;7.36;98.16;100572.16;5021849;28;20025;-67
2021/12/29 06:21:39;;;;;;;20.00;17.05;;;;;;;7.38;98.35;100578.81;4997583;28;20029;-67
2021/12/29 06:24:06;;;;;;;21.60;16.92;;;;;;;7.33;97.73;100583.50;5011891;28;20034;-68
2021/12/29 06:26:32;;;;;;;22.48;18.13;;;;;;;7.36;97.83;100595.38;5012131;28;20470;-68
2021/12/29 06:28:57;;;;;;;21.90;18.13;;;;;;;7.35;97.87;100602.28;5012050;28;20080;-67
2021/12/29 06:31:23;;;;;;;21.35;16.45;;;;;;;7.34;98.05;100600.63;5011552;28;20458;-67
2021/12/29 06:33:49;;;;;;;23.50;17.38;;;;;;;7.35;97.94;100602.28;5011502;28;20036;-67
2021/12/29 06:36:14;;;;;;;22.80;17.55;;;;;;;7.35;97.56;100597.13;5011185;28;20121;-67
2021/12/29 06:38:40;;;;;;;21.45;17.60;;;;;;;7.33;97.92;100609.28;5011892;28;20478;-67
2021/12/29 06:41:05;;;;;;;23.15;17.02;;;;;;;7.34;97.69;100599.78;4993995;28;20041;-67
2021/12/29 06:43:31;;;;;;;22.83;17.00;;;;;;;7.31;97.63;100595.69;4993119;28;20026;-67
2021/12/29 06:45:56;;;;;;;22.05;17.45;;;;;;;7.32;97.72;100601.66;5011694;28;20459;-67
2021/12/29 06:48:22;;;;;;;21.70;17.38;;;;;;;7.29;97.72;100597.56;5011606;28;20533;-68
2021/12/29 06:50:47;;;;;;;20.50;17.08;;;;;;;7.34;97.64;100603.22;4993613;28;20028;-68
2021/12/29 06:53:13;;;;;;;22.00;18.45;;;;;;;7.30;97.82;100604.38;5012293;28;20041;-67
2021/12/29 06:55:39;;;;;;;24.70;17.33;;;;;;;7.30;97.44;100608.69;5014548;28;20040;-67
2021/12/29 06:58:05;;;;;;;21.85;16.42;;;;;;;7.30;97.99;100614.69;5003327;28;20034;-67
2021/12/29 07:00:31;;;;;;;21.83;16.20;;;;;;;7.31;98.07;100613.75;5009763;28;20036;-67
2021/12/29 07:02:57;;;;;;;21.75;16.75;;;;;;;7.33;97.79;100624.78;5020621;28;20550;-67
2021/12/29 07:05:23;;;;;;;19.30;16.00;;;;;;;7.32;97.44;100615.38;5011502;28;20030;-67
2021/12/29 07:07:50;;;;;;;20.92;16.13;;;;;;;7.30;97.61;100609.53;5010889;28;20041;-68
2021/12/29 07:10:15;;;;;;;20.50;15.70;;;;;;;7.29;97.41;100620.78;5001064;28;20141;-68
2021/12/29 07:12:41;;;;;;;21.63;15.10;;;;;;;7.29;97.82;100638.84;4989421;28;20533;-68
2021/12/29 07:15:07;;;;;;;20.25;15.40;;;;;;;7.28;97.39;100632.00;5010173;28;20065;-68
2021/12/29 07:17:32;;;;;;;17.95;15.40;;;;;;;7.27;97.42;100635.53;4997083;28;20032;-68
2021/12/29 07:19:58;;;;;;;19.55;15.40;;;;;;;7.25;97.83;100652.06;4992870;28;20546;-68
2021/12/29 07:22:24;;;;;;;19.10;15.25;;;;;;;7.25;97.90;100652.88;5007544;28;20081;-68
2021/12/29 07:24:50;;;;;;;19.95;15.15;;;;;;;7.24;97.36;100656.38;5004427;28;20549;-68
2021/12/29 07:27:15;;;;;;;21.92;15.07;;;;;;;7.23;97.71;100654.75;5010962;28;20042;-68
2021/12/29 07:29:42;;;;;;;18.17;15.20;;;;;;;7.25;98.16;100652.06;5009743;28;20040;-68
2021/12/29 07:32:07;;;;;;;23.55;15.15;;;;;;;7.23;97.85;100669.41;4991618;28;20501;-68
2021/12/29 07:34:33;;;;;;;19.42;15.27;;;;;;;7.23;97.84;100677.97;4990474;28;20045;-68
2021/12/29 07:36:58;;;;;;;18.15;14.63;;;;;;;7.21;97.24;100673.81;5005496;28;20040;-68
2021/12/29 07:39:24;;;;;;;19.90;14.50;;;;;;;7.20;97.70;100670.44;5003691;28;20068;-68
2021/12/29 07:41:49;;;;;;;19.52;15.32;;;;;;;7.22;97.82;100678.88;5000699;28;20466;-68
2021/12/29 07:44:17;;;;;;;20.83;15.25;;;;;;;7.19;97.66;100684.25;5010320;28;20378;-68
2021/12/29 07:46:44;;;;;;;18.40;15.25;;;;;;;7.19;97.02;100684.25;5010416;28;20135;-68
2021/12/29 07:49:10;;;;;;;21.02;14.98;;;;;;;7.19;96.94;100673.94;5003016;28;20064;-68
2021/12/29 07:51:35;;;;;;;25.75;17.38;;;;;;;7.18;97.11;100677.47;4992211;28;20438;-67
2021/12/29 07:54:01;;;;;;;19.35;16.02;;;;;;;7.16;97.71;100668.97;5013874;28;20029;-68
2021/12/29 07:56:27;;;;;;;20.48;14.65;;;;;;;7.19;97.80;100676.53;5019785;28;20374;-68
2021/12/29 07:58:52;;;;;;;20.45;15.40;;;;;;;7.16;97.52;100680.13;5010778;28;20042;-67
2021/12/29 08:01:18;;;;;;;20.75;14.25;;;;;;;7.17;97.09;100665.50;5010105;28;20359;-68
2021/12/29 08:03:44;;;;;;;17.83;13.93;;;;;;;7.18;97.07;100664.56;5000998;28;20038;-68
2021/12/29 08:06:09;;;;;;;18.92;12.85;;;;;;;7.16;97.72;100679.31;5002980;28;20078;-68
2021/12/29 08:08:34;;;;;;;18.73;13.23;;;;;;;7.18;97.71;100672.31;4991309;28;20148;-68
2021/12/29 08:11:00;;;;;;;20.45;13.60;;;;;;;7.14;97.60;100668.28;5000199;28;20030;-67
2021/12/29 08:13:25;;;;;;;17.85;13.10;;;;;;;7.14;97.58;100684.56;5001775;28;20489;-67
2021/12/29 08:15:51;;;;;;;16.05;11.80;;;;;;;7.14;97.39;100678.59;5005336;28;20467;-68
2021/12/29 08:18:16;;;;;;;18.27;12.15;;;;;;;7.14;97.58;100681.16;5006096;28;20034;-67
2021/12/29 08:20:43;;;;;;;17.75;11.75;;;;;;;7.11;97.61;100681.38;5012357;28;20117;-67
2021/12/29 08:23:09;;;;;;;18.13;10.63;;;;;;;7.12;97.60;100678.72;4993909;28;20383;-68
2021/12/29 08:25:36;;;;;;;14.95;10.68;;;;;;;7.12;97.43;100677.88;5004956;28;20495;-67
2021/12/29 08:28:02;;;;;;;15.18;10.52;;;;;;;7.13;97.20;100679.53;5006444;28;20029;-67
2021/12/29 08:30:27;;;;;;;16.08;10.38;;;;;;;7.11;96.81;100686.53;5003330;28;20117;-67
2021/12/29 08:32:53;;;;;;;13.85;9.80;;;;;;;7.12;97.54;100683.03;4999214;28;20588;-68
2021/12/29 08:35:19;;;;;;;14.88;9.65;;;;;;;7.14;97.46;100681.16;5005452;28;20104;-67
2021/12/29 08:37:45;;;;;;;14.40;9.57;;;;;;;7.09;97.40;100680.66;5005530;28;20429;-67
2021/12/29 08:40:11;;;;;;;14.50;9.50;;;;;;;7.13;97.03;100689.84;5014301;28;20072;-67
2021/12/29 08:42:38;;;;;;;16.38;10.05;;;;;;;7.15;97.66;100687.97;5013799;28;20105;-68
2021/12/29 08:45:06;;;;;;;15.57;9.85;;;;;;;7.15;97.66;100682.81;5006388;28;20026;-67
2021/12/29 08:47:31;;;;;;;17.33;10.00;;;;;;;7.15;97.49;100698.28;4999838;28;20060;-68
2021/12/29 08:49:56;;;;;;;17.05;10.38;;;;;;;7.17;97.20;100694.69;4995570;28;20484;-67
2021/12/29 08:52:22;;;;;;;14.25;10.18;;;;;;;7.17;97.04;100697.28;4989634;28;20033;-67
2021/12/29 08:54:47;;;;;;;16.77;10.23;;;;;;;7.16;97.22;100692.19;5013612;28;20079;-67
2021/12/29 08:57:13;;;;;;;14.88;10.23;;;;;;;7.17;97.35;100686.13;5013468;28;20030;-67
2021/12/29 08:59:38;;;;;;;15.68;10.77;;;;;;;7.16;96.72;100679.31;5013573;28;20370;-67
2021/12/29 09:02:04;;;;;;;15.20;11.57;;;;;;;7.19;96.68;100690.25;5003238;28;20026;-67
2021/12/29 09:04:29;;;;;;;18.23;11.60;;;;;;;7.20;97.08;100691.06;4998294;28;20041;-68
2021/12/29 09:06:54;;;;;;;15.75;10.75;;;;;;;7.21;96.68;100692.69;5002801;28;20065;-67
2021/12/29 09:09:20;;;;;;;15.95;11.07;;;;;;;7.22;97.63;100694.34;5006412;28;20470;-67
2021/12/29 09:11:45;;;;;;;13.07;10.80;;;;;;;7.25;97.25;100694.16;5005900;28;20033;-67
2021/12/29 09:14:11;;;;;;;16.17;11.73;;;;;;;7.24;97.35;100686.53;5004298;28;20046;-68
2021/12/29 09:16:36;;;;;;;14.98;11.70;;;;;;;7.26;97.34;100690.63;5007720;28;20061;-68
2021/12/29 09:19:03;;;;;;;16.17;12.40;;;;;;;7.27;96.75;100691.44;5009364;28;20026;-68
2021/12/29 09:21:29;;;;;;;16.45;12.90;;;;;;;7.27;96.78;100687.13;5007233;28;20030;-67
2021/12/29 09:23:55;;;;;;;17.23;13.52;;;;;;;7.31;96.41;100680.81;5010864;28;20038;-68
2021/12/29 09:26:20;;;;;;;14.68;13.10;;;;;;;7.31;96.49;100675.66;5013607;28;20354;-68
2021/12/29 09:28:48;;;;;;;16.25;13.05;;;;;;;7.31;96.61;100667.91;4994574;28;20029;-68
2021/12/29 09:31:14;;;;;;;16.20;12.80;;;;;;;7.34;96.81;100672.88;5004886;28;20034;-68
2021/12/29 09:33:41;;;;;;;16.85;13.15;;;;;;;7.33;96.47;100666.03;5005013;28;20030;-67
2021/12/29 09:36:06;;;;;;;15.25;13.68;;;;;;;7.34;96.70;100659.97;4995571;28;20035;-68
2021/12/29 09:38:38;;;;;;;17.05;13.65;;;;;;;7.35;96.50;100679.69;5014631;28;20048;-68
2021/12/29 09:41:06;;;;;;;15.85;13.98;;;;;;;7.36;96.35;100681.31;4984596;28;20030;-67
2021/12/29 09:43:31;;;;;;;16.58;14.07;;;;;;;7.37;96.81;100671.81;5001313;28;20369;-68
2021/12/29 09:45:56;;;;;;;15.82;13.52;;;;;;;7.38;96.18;100669.13;5004542;28;20030;-68
2021/12/29 09:48:22;;;;;;;18.10;15.07;;;;;;;7.37;95.71;100672.66;5006744;28;20458;-68
2021/12/29 09:50:49;;;;;;;17.30;14.70;;;;;;;7.36;95.71;100671.00;5002847;28;20022;-68
2021/12/29 09:53:15;;;;;;;15.20;13.60;;;;;;;7.40;96.13;100667.28;4998236;28;20026;-68
2021/12/29 09:55:41;;;;;;;18.67;14.38;;;;;;;7.47;95.55;100666.84;4995544;28;20419;-68
2021/12/29 09:58:08;;;;;;;16.02;13.57;;;;;;;7.43;95.45;100661.06;5012585;28;20057;-68
2021/12/29 10:00:56;;;;;;;15.57;13.32;;;;;;;7.49;95.75;100672.72;4995697;28;20538;-69
2021/12/29 10:03:25;;;;;;;16.38;13.88;;;;;;;7.50;95.05;100667.44;5009753;28;20050;-68
2021/12/29 10:05:53;;;;;;;15.45;13.85;;;;;;;7.52;95.58;100668.16;4988627;28;20036;-68
2021/12/29 10:08:22;;;;;;;;;;;;;;;7.66;95.96;100674.91;5002388;28;20026;-68
2021/12/29 10:10:51;;;;;;;17.63;13.98;;;;;;;7.57;95.02;100672.97;5002403;28;19917;-68
2021/12/29 10:13:17;;;;;;;15.20;13.60;;;;;;;7.61;94.85;100679.56;5002816;28;20023;-68
2021/12/29 10:15:46;;;;;;;15.55;13.30;;;;;;;7.61;95.67;100679.56;5007839;28;20462;-68
2021/12/29 10:18:17;;;;;;;14.95;12.80;;;;;;;7.66;94.83;100673.16;5003836;28;20034;-69
2021/12/29 10:20:52;;;;;;;17.33;13.20;;;;;;;7.70;94.79;100666.03;4979230;28;20037;-68
2021/12/29 10:23:23;;;;;;;14.50;12.93;;;;;;;7.71;95.17;100670.25;4999681;28;20061;-68
2021/12/29 10:25:52;;;;;;;15.77;12.82;;;;;;;7.71;94.47;100659.91;5000099;28;20033;-68
2021/12/29 10:28:28;;;;;;;16.52;13.48;;;;;;;7.73;94.60;100647.72;4983637;28;20033;-68
2021/12/29 10:30:57;;;;;;;13.57;11.68;;;;;;;7.73;95.02;100638.22;4999980;28;20120;-68
2021/12/29 10:33:22;;;;;;;14.15;12.20;;;;;;;7.75;94.64;100624.41;5006822;28;20028;-68
2021/12/29 10:35:47;;;;;;;16.23;13.02;;;;;;;7.76;95.02;100626.84;5008001;28;20026;-68
2021/12/29 10:38:20;;;;;;;14.68;11.77;;;;;;;7.80;94.08;100633.44;5006100;28;20033;-68
2021/12/29 10:40:46;;;;;;;15.88;11.93;;;;;;;7.81;94.73;100624.75;5001417;28;20077;-68
2021/12/29 10:43:13;;;;;;;13.65;11.30;;;;;;;7.81;94.51;100632.50;5012304;28;20170;-68
2021/12/29 10:45:41;;;;;;;14.32;11.60;;;;;;;7.85;94.52;100633.91;5002030;28;20037;-68
2021/12/29 10:48:45;;;;;;;17.17;12.93;;;;;;;7.91;94.68;100636.06;5002497;28;20030;-68
2021/12/29 10:51:10;;;;;;;15.18;11.10;;;;;;;7.89;94.40;100627.59;4995554;28;20034;-68
2021/12/29 10:53:38;;;;;;;15.82;11.15;;;;;;;7.87;94.26;100626.88;4997141;28;20075;-68
2021/12/29 10:56:05;;;;;;;14.15;11.20;;;;;;;7.89;94.33;100617.25;4996795;28;20436;-68
2021/12/29 10:58:34;;;;;;;14.55;10.73;;;;;;;7.89;94.37;100631.94;5004098;28;20032;-68
2021/12/29 11:01:09;;;;;;;16.30;10.27;;;;;;;7.90;94.16;100639.56;5001542;28;20033;-68
2021/12/29 11:03:44;;;;;;;14.55;10.10;;;;;;;7.91;94.11;100646.41;4998064;28;20038;-68
2021/12/29 11:06:14;;;;;;;13.23;9.65;;;;;;;7.90;94.14;100659.41;4998676;28;20042;-68
2021/12/29 11:08:57;;;;;;;14.85;9.65;;;;;;;7.92;93.81;100650.63;4984022;28;20390;-68
2021/12/29 11:11:34;;;;;;;13.15;9.15;;;;;;;7.93;94.45;100652.25;5007289;28;20018;-68
2021/12/29 11:14:13;;;;;;;14.75;8.95;;;;;;;7.94;93.90;100655.66;5004977;28;20033;-68
2021/12/29 11:16:40;;;;;;;15.30;8.80;;;;;;;7.90;93.93;100649.88;5003619;28;20102;-68
2021/12/29 11:19:05;;;;;;;13.82;8.98;;;;;;;7.93;94.09;100660.00;5010921;28;20065;-67
2021/12/29 11:21:38;;;;;;;13.40;8.65;;;;;;;7.92;93.86;100658.38;5006006;28;20046;-67